sensor_id;sensor_type;location;lat;lon;timestamp;temperature;humidity
41294;DHT22;27037;52.010;4.446;2023-08-08T00:00:26;17.10;99.90
41294;DHT22;27037;52.010;4.446;2023-08-08T00:02:52;17.10;99.90
41294;DHT22;27037;52.010;4.446;2023-08-08T00:05:17;17.10;99.90
41294;DHT22;27037;52.010;4.446;2023-08-08T00:07:43;17.10;99.90
41294;DHT22;27037;52.010;4.446;2023-08-08T00:10:09;17.10;99.90
41294;DHT22;27037;52.010;4.446;2023-08-08T00:12:35;17.20;99.90
41294;DHT22;27037;52.010;4.446;2023-08-08T00:15:00;17.20;99.90
41294;DHT22;27037;52.010;4.446;2023-08-08T00:17:26;17.20;99.90
41294;DHT22;27037;52.010;4.446;2023-08-08T00:19:52;17.20;99.90
41294;DHT22;27037;52.010;4.446;2023-08-08T00:22:17;17.20;99.90
41294;DHT22;27037;52.010;4.446;2023-08-08T00:24:43;17.20;99.90
41294;DHT22;27037;52.010;4.446;2023-08-08T00:27:09;17.20;99.90
41294;DHT22;27037;52.010;4.446;2023-08-08T00:29:34;17.20;99.90
41294;DHT22;27037;52.010;4.446;2023-08-08T00:32:00;17.20;99.90
41294;DHT22;27037;52.010;4.446;2023-08-08T00:34:25;17.20;99.90
41294;DHT22;27037;52.010;4.446;2023-08-08T00:36:51;17.20;99.90
41294;DHT22;27037;52.010;4.446;2023-08-08T00:39:17;17.20;99.90
41294;DHT22;27037;52.010;4.446;2023-08-08T00:41:42;17.20;99.90
41294;DHT22;27037;52.010;4.446;2023-08-08T00:44:08;17.20;99.90
41294;DHT22;27037;52.010;4.446;2023-08-08T00:46:34;17.20;99.90
41294;DHT22;27037;52.010;4.446;2023-08-08T00:49:00;17.20;99.90
41294;DHT22;27037;52.010;4.446;2023-08-08T00:51:25;17.10;99.90
41294;DHT22;27037;52.010;4.446;2023-08-08T00:53:51;17.10;99.90
41294;DHT22;27037;52.010;4.446;2023-08-08T00:56:17;17.10;99.90
41294;DHT22;27037;52.010;4.446;2023-08-08T00:58:43;17.00;99.90
41294;DHT22;27037;52.010;4.446;2023-08-08T01:01:11;17.00;99.90
41294;DHT22;27037;52.010;4.446;2023-08-08T01:03:37;17.00;99.90
41294;DHT22;27037;52.010;4.446;2023-08-08T01:06:05;17.00;99.90
41294;DHT22;27037;52.010;4.446;2023-08-08T01:08:39;16.90;99.90
41294;DHT22;27037;52.010;4.446;2023-08-08T01:11:08;16.90;99.90
41294;DHT22;27037;52.010;4.446;2023-08-08T01:13:35;16.90;99.90
41294;DHT22;27037;52.010;4.446;2023-08-08T01:16:03;16.90;99.90
41294;DHT22;27037;52.010;4.446;2023-08-08T01:18:32;16.90;99.90
41294;DHT22;27037;52.010;4.446;2023-08-08T01:20:58;16.90;99.90
41294;DHT22;27037;52.010;4.446;2023-08-08T01:24:00;16.90;99.90
41294;DHT22;27037;52.010;4.446;2023-08-08T01:26:27;16.90;99.90
41294;DHT22;27037;52.010;4.446;2023-08-08T01:28:54;16.90;99.90
41294;DHT22;27037;52.010;4.446;2023-08-08T01:31:20;16.90;99.90
41294;DHT22;27037;52.010;4.446;2023-08-08T01:33:46;16.90;99.90
41294;DHT22;27037;52.010;4.446;2023-08-08T01:36:20;16.90;99.90
41294;DHT22;27037;52.010;4.446;2023-08-08T01:38:47;16.90;99.90
41294;DHT22;27037;52.010;4.446;2023-08-08T01:41:14;16.90;99.90
41294;DHT22;27037;52.010;4.446;2023-08-08T01:43:41;16.80;99.90
41294;DHT22;27037;52.010;4.446;2023-08-08T01:46:07;16.90;99.90
41294;DHT22;27037;52.010;4.446;2023-08-08T01:48:34;16.90;99.90
41294;DHT22;27037;52.010;4.446;2023-08-08T01:50:59;16.80;99.90
41294;DHT22;27037;52.010;4.446;2023-08-08T01:53:25;16.80;99.90
41294;DHT22;27037;52.010;4.446;2023-08-08T01:55:51;16.80;99.90
41294;DHT22;27037;52.010;4.446;2023-08-08T01:58:18;16.80;99.90
41294;DHT22;27037;52.010;4.446;2023-08-08T02:00:44;16.80;99.90
41294;DHT22;27037;52.010;4.446;2023-08-08T02:03:11;16.80;99.90
41294;DHT22;27037;52.010;4.446;2023-08-08T02:05:36;16.80;99.90
41294;DHT22;27037;52.010;4.446;2023-08-08T02:08:02;16.80;99.90
41294;DHT22;27037;52.010;4.446;2023-08-08T02:10:28;16.80;99.90
41294;DHT22;27037;52.010;4.446;2023-08-08T02:12:54;16.80;99.90
41294;DHT22;27037;52.010;4.446;2023-08-08T02:15:20;16.80;99.90
41294;DHT22;27037;52.010;4.446;2023-08-08T02:17:45;16.80;99.90
41294;DHT22;27037;52.010;4.446;2023-08-08T02:20:12;16.70;99.90
41294;DHT22;27037;52.010;4.446;2023-08-08T02:22:38;16.70;99.90
41294;DHT22;27037;52.010;4.446;2023-08-08T02:25:04;16.70;99.90
41294;DHT22;27037;52.010;4.446;2023-08-08T02:27:29;16.70;99.90
41294;DHT22;27037;52.010;4.446;2023-08-08T02:29:55;16.70;99.90
41294;DHT22;27037;52.010;4.446;2023-08-08T02:32:23;16.70;99.90
41294;DHT22;27037;52.010;4.446;2023-08-08T02:34:48;16.70;99.90
41294;DHT22;27037;52.010;4.446;2023-08-08T02:37:14;16.70;99.90
41294;DHT22;27037;52.010;4.446;2023-08-08T02:39:42;16.60;99.90
41294;DHT22;27037;52.010;4.446;2023-08-08T02:42:08;16.60;99.90
41294;DHT22;27037;52.010;4.446;2023-08-08T02:44:34;16.60;99.90
41294;DHT22;27037;52.010;4.446;2023-08-08T02:46:59;16.60;99.90
41294;DHT22;27037;52.010;4.446;2023-08-08T02:49:25;16.50;99.90
41294;DHT22;27037;52.010;4.446;2023-08-08T02:51:51;16.50;99.90
41294;DHT22;27037;52.010;4.446;2023-08-08T02:54:16;16.50;99.90
41294;DHT22;27037;52.010;4.446;2023-08-08T02:56:42;16.40;99.90
41294;DHT22;27037;52.010;4.446;2023-08-08T02:59:07;16.40;99.90
41294;DHT22;27037;52.010;4.446;2023-08-08T03:01:33;16.40;99.90
41294;DHT22;27037;52.010;4.446;2023-08-08T03:04:03;16.40;99.90
41294;DHT22;27037;52.010;4.446;2023-08-08T03:06:28;16.30;99.90
41294;DHT22;27037;52.010;4.446;2023-08-08T03:08:54;16.30;99.90
41294;DHT22;27037;52.010;4.446;2023-08-08T03:11:20;16.30;99.90
41294;DHT22;27037;52.010;4.446;2023-08-08T03:13:45;16.30;99.90
41294;DHT22;27037;52.010;4.446;2023-08-08T03:16:11;16.30;99.90
41294;DHT22;27037;52.010;4.446;2023-08-08T03:18:36;16.30;99.90
41294;DHT22;27037;52.010;4.446;2023-08-08T03:21:02;16.30;99.90
41294;DHT22;27037;52.010;4.446;2023-08-08T03:23:28;16.30;99.90
41294;DHT22;27037;52.010;4.446;2023-08-08T03:25:54;16.30;99.90
41294;DHT22;27037;52.010;4.446;2023-08-08T03:28:19;16.30;99.90
41294;DHT22;27037;52.010;4.446;2023-08-08T03:30:45;16.30;99.90
41294;DHT22;27037;52.010;4.446;2023-08-08T03:33:11;16.30;99.90
41294;DHT22;27037;52.010;4.446;2023-08-08T03:35:36;16.30;99.90
41294;DHT22;27037;52.010;4.446;2023-08-08T03:38:02;16.30;99.90
41294;DHT22;27037;52.010;4.446;2023-08-08T03:40:28;16.30;99.90
41294;DHT22;27037;52.010;4.446;2023-08-08T03:42:54;16.30;99.90
41294;DHT22;27037;52.010;4.446;2023-08-08T03:45:19;16.30;99.90
41294;DHT22;27037;52.010;4.446;2023-08-08T03:47:45;16.40;99.90
41294;DHT22;27037;52.010;4.446;2023-08-08T03:50:11;16.30;99.90
41294;DHT22;27037;52.010;4.446;2023-08-08T03:52:37;16.30;99.90
41294;DHT22;27037;52.010;4.446;2023-08-08T03:55:04;16.30;99.90
41294;DHT22;27037;52.010;4.446;2023-08-08T03:57:30;16.40;99.90
41294;DHT22;27037;52.010;4.446;2023-08-08T03:59:55;16.30;99.90
41294;DHT22;27037;52.010;4.446;2023-08-08T04:02:21;16.30;99.90
41294;DHT22;27037;52.010;4.446;2023-08-08T04:04:47;16.30;99.90
41294;DHT22;27037;52.010;4.446;2023-08-08T04:07:12;16.30;99.90
41294;DHT22;27037;52.010;4.446;2023-08-08T04:09:38;16.20;99.90
41294;DHT22;27037;52.010;4.446;2023-08-08T04:12:04;16.20;99.90
41294;DHT22;27037;52.010;4.446;2023-08-08T04:14:29;16.10;99.90
41294;DHT22;27037;52.010;4.446;2023-08-08T04:16:55;16.10;99.90
41294;DHT22;27037;52.010;4.446;2023-08-08T04:19:21;16.10;99.90
41294;DHT22;27037;52.010;4.446;2023-08-08T04:21:47;16.10;99.90
41294;DHT22;27037;52.010;4.446;2023-08-08T04:24:12;16.10;99.90
41294;DHT22;27037;52.010;4.446;2023-08-08T04:26:38;16.00;99.90
41294;DHT22;27037;52.010;4.446;2023-08-08T04:29:05;16.00;99.90
41294;DHT22;27037;52.010;4.446;2023-08-08T04:31:30;16.00;99.90
41294;DHT22;27037;52.010;4.446;2023-08-08T04:33:56;16.00;99.90
41294;DHT22;27037;52.010;4.446;2023-08-08T04:36:26;15.90;99.90
41294;DHT22;27037;52.010;4.446;2023-08-08T04:38:52;15.90;99.90
41294;DHT22;27037;52.010;4.446;2023-08-08T04:41:17;15.90;99.90
41294;DHT22;27037;52.010;4.446;2023-08-08T04:43:43;15.90;99.90
41294;DHT22;27037;52.010;4.446;2023-08-08T04:46:09;15.90;99.90
41294;DHT22;27037;52.010;4.446;2023-08-08T04:48:35;15.90;99.90
41294;DHT22;27037;52.010;4.446;2023-08-08T04:51:04;15.90;99.90
41294;DHT22;27037;52.010;4.446;2023-08-08T04:53:30;15.90;99.90
41294;DHT22;27037;52.010;4.446;2023-08-08T04:55:55;15.90;99.90
41294;DHT22;27037;52.010;4.446;2023-08-08T04:58:21;15.90;99.90
41294;DHT22;27037;52.010;4.446;2023-08-08T05:00:47;16.00;99.90
41294;DHT22;27037;52.010;4.446;2023-08-08T05:03:12;16.00;99.90
41294;DHT22;27037;52.010;4.446;2023-08-08T05:05:38;16.00;99.90
41294;DHT22;27037;52.010;4.446;2023-08-08T05:08:04;16.00;99.90
41294;DHT22;27037;52.010;4.446;2023-08-08T05:10:30;16.00;99.90
41294;DHT22;27037;52.010;4.446;2023-08-08T05:12:57;16.10;99.90
41294;DHT22;27037;52.010;4.446;2023-08-08T05:15:22;16.10;99.90
41294;DHT22;27037;52.010;4.446;2023-08-08T05:17:48;16.10;99.90
41294;DHT22;27037;52.010;4.446;2023-08-08T05:20:14;16.10;99.90
41294;DHT22;27037;52.010;4.446;2023-08-08T05:22:39;16.20;99.90
41294;DHT22;27037;52.010;4.446;2023-08-08T05:25:06;16.20;99.90
41294;DHT22;27037;52.010;4.446;2023-08-08T05:27:31;16.20;99.90
41294;DHT22;27037;52.010;4.446;2023-08-08T05:29:57;16.20;99.90
41294;DHT22;27037;52.010;4.446;2023-08-08T05:32:23;16.20;99.90
41294;DHT22;27037;52.010;4.446;2023-08-08T05:34:50;16.20;99.90
41294;DHT22;27037;52.010;4.446;2023-08-08T05:37:16;16.20;99.90
41294;DHT22;27037;52.010;4.446;2023-08-08T05:39:42;16.20;99.90
41294;DHT22;27037;52.010;4.446;2023-08-08T05:42:07;16.20;99.90
41294;DHT22;27037;52.010;4.446;2023-08-08T05:44:33;16.20;99.90
41294;DHT22;27037;52.010;4.446;2023-08-08T05:46:59;16.20;99.90
41294;DHT22;27037;52.010;4.446;2023-08-08T05:49:24;16.10;99.90
41294;DHT22;27037;52.010;4.446;2023-08-08T05:51:50;16.20;99.90
41294;DHT22;27037;52.010;4.446;2023-08-08T05:54:15;16.20;99.90
41294;DHT22;27037;52.010;4.446;2023-08-08T05:56:41;16.10;99.90
41294;DHT22;27037;52.010;4.446;2023-08-08T05:59:06;16.10;99.90
41294;DHT22;27037;52.010;4.446;2023-08-08T06:01:32;16.10;99.90
41294;DHT22;27037;52.010;4.446;2023-08-08T06:03:59;16.10;99.90
41294;DHT22;27037;52.010;4.446;2023-08-08T06:06:26;16.10;99.90
41294;DHT22;27037;52.010;4.446;2023-08-08T06:08:52;16.20;99.90
41294;DHT22;27037;52.010;4.446;2023-08-08T06:11:17;16.20;99.90
41294;DHT22;27037;52.010;4.446;2023-08-08T06:13:43;16.20;99.90
41294;DHT22;27037;52.010;4.446;2023-08-08T06:16:09;16.20;99.90
41294;DHT22;27037;52.010;4.446;2023-08-08T06:18:35;16.30;99.90
41294;DHT22;27037;52.010;4.446;2023-08-08T06:21:01;16.30;99.90
41294;DHT22;27037;52.010;4.446;2023-08-08T06:23:26;16.40;99.90
41294;DHT22;27037;52.010;4.446;2023-08-08T06:25:52;16.40;99.90
41294;DHT22;27037;52.010;4.446;2023-08-08T06:28:18;16.40;99.90
41294;DHT22;27037;52.010;4.446;2023-08-08T06:30:43;16.40;99.90
41294;DHT22;27037;52.010;4.446;2023-08-08T06:33:09;16.50;99.90
41294;DHT22;27037;52.010;4.446;2023-08-08T06:35:34;16.50;99.90
41294;DHT22;27037;52.010;4.446;2023-08-08T06:38:00;16.50;99.90
41294;DHT22;27037;52.010;4.446;2023-08-08T06:40:26;16.50;99.90
41294;DHT22;27037;52.010;4.446;2023-08-08T06:42:52;16.60;99.90
41294;DHT22;27037;52.010;4.446;2023-08-08T06:45:18;16.60;99.90
41294;DHT22;27037;52.010;4.446;2023-08-08T06:47:44;16.60;99.90
41294;DHT22;27037;52.010;4.446;2023-08-08T06:50:10;16.60;99.90
41294;DHT22;27037;52.010;4.446;2023-08-08T06:52:36;16.70;99.90
41294;DHT22;27037;52.010;4.446;2023-08-08T06:55:02;16.70;99.90
41294;DHT22;27037;52.010;4.446;2023-08-08T06:57:33;16.80;99.90
41294;DHT22;27037;52.010;4.446;2023-08-08T06:59:59;16.90;99.90
41294;DHT22;27037;52.010;4.446;2023-08-08T07:02:24;16.90;99.90
41294;DHT22;27037;52.010;4.446;2023-08-08T07:04:50;17.00;99.90
41294;DHT22;27037;52.010;4.446;2023-08-08T07:07:16;17.00;99.90
41294;DHT22;27037;52.010;4.446;2023-08-08T07:09:42;17.10;99.90
41294;DHT22;27037;52.010;4.446;2023-08-08T07:12:07;17.10;99.90
41294;DHT22;27037;52.010;4.446;2023-08-08T07:14:33;17.10;99.90
41294;DHT22;27037;52.010;4.446;2023-08-08T07:16:59;17.10;99.90
41294;DHT22;27037;52.010;4.446;2023-08-08T07:19:24;17.20;99.90
41294;DHT22;27037;52.010;4.446;2023-08-08T07:21:50;17.30;99.90
41294;DHT22;27037;52.010;4.446;2023-08-08T07:24:16;17.40;99.90
41294;DHT22;27037;52.010;4.446;2023-08-08T07:26:42;17.40;99.90
41294;DHT22;27037;52.010;4.446;2023-08-08T07:29:07;17.50;99.90
41294;DHT22;27037;52.010;4.446;2023-08-08T07:31:33;17.50;99.90
41294;DHT22;27037;52.010;4.446;2023-08-08T07:33:59;17.60;99.90
41294;DHT22;27037;52.010;4.446;2023-08-08T07:36:24;17.60;99.90
41294;DHT22;27037;52.010;4.446;2023-08-08T07:38:50;17.70;99.90
41294;DHT22;27037;52.010;4.446;2023-08-08T07:41:16;17.80;99.90
41294;DHT22;27037;52.010;4.446;2023-08-08T07:43:43;17.80;99.90
41294;DHT22;27037;52.010;4.446;2023-08-08T07:46:09;17.80;99.90
41294;DHT22;27037;52.010;4.446;2023-08-08T07:48:34;17.90;99.90
41294;DHT22;27037;52.010;4.446;2023-08-08T07:51:00;18.00;99.90
41294;DHT22;27037;52.010;4.446;2023-08-08T07:53:26;18.00;99.90
41294;DHT22;27037;52.010;4.446;2023-08-08T07:55:52;18.10;99.90
41294;DHT22;27037;52.010;4.446;2023-08-08T07:58:17;18.30;99.90
41294;DHT22;27037;52.010;4.446;2023-08-08T08:00:43;18.40;99.90
41294;DHT22;27037;52.010;4.446;2023-08-08T08:03:10;18.50;99.90
41294;DHT22;27037;52.010;4.446;2023-08-08T08:05:35;18.40;99.90
41294;DHT22;27037;52.010;4.446;2023-08-08T08:08:03;18.40;99.90
41294;DHT22;27037;52.010;4.446;2023-08-08T08:10:28;18.40;99.90
41294;DHT22;27037;52.010;4.446;2023-08-08T08:12:54;18.40;99.90
41294;DHT22;27037;52.010;4.446;2023-08-08T08:15:26;18.50;99.90
41294;DHT22;27037;52.010;4.446;2023-08-08T08:17:52;18.60;99.90
41294;DHT22;27037;52.010;4.446;2023-08-08T08:20:17;18.70;99.90
41294;DHT22;27037;52.010;4.446;2023-08-08T08:22:43;18.80;99.90
41294;DHT22;27037;52.010;4.446;2023-08-08T08:25:09;18.90;99.90
41294;DHT22;27037;52.010;4.446;2023-08-08T08:27:35;18.90;99.90
41294;DHT22;27037;52.010;4.446;2023-08-08T08:30:03;19.00;99.90
41294;DHT22;27037;52.010;4.446;2023-08-08T08:32:34;18.90;99.90
41294;DHT22;27037;52.010;4.446;2023-08-08T08:35:04;18.90;99.90
41294;DHT22;27037;52.010;4.446;2023-08-08T08:37:31;19.00;99.90
41294;DHT22;27037;52.010;4.446;2023-08-08T08:39:57;19.00;99.90
41294;DHT22;27037;52.010;4.446;2023-08-08T08:42:23;19.00;99.90
41294;DHT22;27037;52.010;4.446;2023-08-08T08:44:49;19.10;99.90
41294;DHT22;27037;52.010;4.446;2023-08-08T08:47:19;19.20;99.90
41294;DHT22;27037;52.010;4.446;2023-08-08T08:49:45;19.20;99.90
41294;DHT22;27037;52.010;4.446;2023-08-08T08:52:13;19.10;99.90
41294;DHT22;27037;52.010;4.446;2023-08-08T08:54:39;19.10;99.90
41294;DHT22;27037;52.010;4.446;2023-08-08T08:57:05;19.10;99.90
41294;DHT22;27037;52.010;4.446;2023-08-08T08:59:30;19.00;99.90
41294;DHT22;27037;52.010;4.446;2023-08-08T09:01:56;19.00;99.90
41294;DHT22;27037;52.010;4.446;2023-08-08T09:04:23;19.10;99.90
41294;DHT22;27037;52.010;4.446;2023-08-08T09:06:50;19.20;99.90
41294;DHT22;27037;52.010;4.446;2023-08-08T09:09:17;19.20;99.90
41294;DHT22;27037;52.010;4.446;2023-08-08T09:11:46;19.30;99.90
41294;DHT22;27037;52.010;4.446;2023-08-08T09:14:22;19.50;99.90
41294;DHT22;27037;52.010;4.446;2023-08-08T09:16:49;19.60;99.90
41294;DHT22;27037;52.010;4.446;2023-08-08T09:19:15;19.80;99.90
41294;DHT22;27037;52.010;4.446;2023-08-08T09:21:43;20.00;99.90
41294;DHT22;27037;52.010;4.446;2023-08-08T09:24:09;19.90;99.90
41294;DHT22;27037;52.010;4.446;2023-08-08T09:26:35;19.90;99.90
41294;DHT22;27037;52.010;4.446;2023-08-08T09:29:02;19.90;99.90
41294;DHT22;27037;52.010;4.446;2023-08-08T09:31:28;20.00;99.90
41294;DHT22;27037;52.010;4.446;2023-08-08T09:33:58;20.10;99.90
41294;DHT22;27037;52.010;4.446;2023-08-08T09:36:24;20.10;99.90
41294;DHT22;27037;52.010;4.446;2023-08-08T09:38:51;20.20;99.90
41294;DHT22;27037;52.010;4.446;2023-08-08T09:41:17;20.20;99.90
41294;DHT22;27037;52.010;4.446;2023-08-08T09:43:46;20.20;99.90
41294;DHT22;27037;52.010;4.446;2023-08-08T09:46:12;20.00;99.90
41294;DHT22;27037;52.010;4.446;2023-08-08T09:48:39;20.00;99.90
41294;DHT22;27037;52.010;4.446;2023-08-08T09:51:06;20.00;99.90
41294;DHT22;27037;52.010;4.446;2023-08-08T09:53:33;20.00;99.90
41294;DHT22;27037;52.010;4.446;2023-08-08T09:56:01;20.10;99.90
41294;DHT22;27037;52.010;4.446;2023-08-08T09:58:27;20.10;99.90
41294;DHT22;27037;52.010;4.446;2023-08-08T10:00:52;20.20;99.90
41294;DHT22;27037;52.010;4.446;2023-08-08T10:03:18;20.10;99.90
41294;DHT22;27037;52.010;4.446;2023-08-08T10:05:45;20.10;99.90
41294;DHT22;27037;52.010;4.446;2023-08-08T10:08:11;20.10;99.90
41294;DHT22;27037;52.010;4.446;2023-08-08T10:10:41;20.10;99.90
41294;DHT22;27037;52.010;4.446;2023-08-08T10:13:07;20.10;99.90
41294;DHT22;27037;52.010;4.446;2023-08-08T10:15:37;20.20;99.90
41294;DHT22;27037;52.010;4.446;2023-08-08T10:18:03;20.30;99.90
41294;DHT22;27037;52.010;4.446;2023-08-08T10:20:31;20.40;99.90
41294;DHT22;27037;52.010;4.446;2023-08-08T10:22:59;20.50;99.90
41294;DHT22;27037;52.010;4.446;2023-08-08T10:25:28;20.40;99.90
41294;DHT22;27037;52.010;4.446;2023-08-08T10:28:21;20.40;99.90
41294;DHT22;27037;52.010;4.446;2023-08-08T10:30:53;20.40;99.90
41294;DHT22;27037;52.010;4.446;2023-08-08T10:33:26;20.40;99.90
41294;DHT22;27037;52.010;4.446;2023-08-08T10:36:01;20.30;99.90
41294;DHT22;27037;52.010;4.446;2023-08-08T10:38:45;20.30;99.90
41294;DHT22;27037;52.010;4.446;2023-08-08T10:41:17;20.30;99.90
41294;DHT22;27037;52.010;4.446;2023-08-08T10:43:57;20.20;99.90
41294;DHT22;27037;52.010;4.446;2023-08-08T10:46:32;20.20;99.90
41294;DHT22;27037;52.010;4.446;2023-08-08T10:49:04;20.10;99.90
41294;DHT22;27037;52.010;4.446;2023-08-08T10:51:38;20.10;99.90
41294;DHT22;27037;52.010;4.446;2023-08-08T10:54:22;20.20;99.90
41294;DHT22;27037;52.010;4.446;2023-08-08T10:56:50;20.20;99.90
41294;DHT22;27037;52.010;4.446;2023-08-08T10:59:22;20.30;99.90
41294;DHT22;27037;52.010;4.446;2023-08-08T11:01:50;20.30;99.90
41294;DHT22;27037;52.010;4.446;2023-08-08T11:04:20;20.40;99.90
41294;DHT22;27037;52.010;4.446;2023-08-08T11:06:47;20.30;99.90
41294;DHT22;27037;52.010;4.446;2023-08-08T11:09:16;20.20;99.90
41294;DHT22;27037;52.010;4.446;2023-08-08T11:11:44;20.20;99.90
41294;DHT22;27037;52.010;4.446;2023-08-08T11:14:18;20.10;99.90
41294;DHT22;27037;52.010;4.446;2023-08-08T11:16:45;20.10;99.90
41294;DHT22;27037;52.010;4.446;2023-08-08T11:19:11;20.20;99.90
41294;DHT22;27037;52.010;4.446;2023-08-08T11:21:43;20.40;99.90
41294;DHT22;27037;52.010;4.446;2023-08-08T11:24:09;20.60;99.90
41294;DHT22;27037;52.010;4.446;2023-08-08T11:26:36;20.70;99.90
41294;DHT22;27037;52.010;4.446;2023-08-08T11:29:03;20.90;99.90
41294;DHT22;27037;52.010;4.446;2023-08-08T11:31:31;21.00;99.90
41294;DHT22;27037;52.010;4.446;2023-08-08T11:33:58;21.10;99.90
41294;DHT22;27037;52.010;4.446;2023-08-08T11:36:25;21.20;99.90
41294;DHT22;27037;52.010;4.446;2023-08-08T11:38:52;21.20;99.90
41294;DHT22;27037;52.010;4.446;2023-08-08T11:41:22;21.20;99.90
41294;DHT22;27037;52.010;4.446;2023-08-08T11:43:49;21.20;99.90
41294;DHT22;27037;52.010;4.446;2023-08-08T11:46:16;21.20;99.90
41294;DHT22;27037;52.010;4.446;2023-08-08T11:48:45;21.10;99.90
41294;DHT22;27037;52.010;4.446;2023-08-08T11:51:14;21.00;99.90
41294;DHT22;27037;52.010;4.446;2023-08-08T11:53:48;20.90;99.90
41294;DHT22;27037;52.010;4.446;2023-08-08T11:56:15;20.80;99.90
41294;DHT22;27037;52.010;4.446;2023-08-08T11:58:41;20.80;99.90
41294;DHT22;27037;52.010;4.446;2023-08-08T12:01:07;20.90;99.90
41294;DHT22;27037;52.010;4.446;2023-08-08T12:03:35;21.00;99.90
41294;DHT22;27037;52.010;4.446;2023-08-08T12:06:17;20.90;99.90
41294;DHT22;27037;52.010;4.446;2023-08-08T12:08:44;20.80;99.90
41294;DHT22;27037;52.010;4.446;2023-08-08T12:11:11;20.80;99.90
41294;DHT22;27037;52.010;4.446;2023-08-08T12:13:40;20.80;99.90
41294;DHT22;27037;52.010;4.446;2023-08-08T12:16:10;20.90;99.90
41294;DHT22;27037;52.010;4.446;2023-08-08T12:18:37;21.00;99.90
41294;DHT22;27037;52.010;4.446;2023-08-08T12:21:07;21.00;99.90
41294;DHT22;27037;52.010;4.446;2023-08-08T12:23:35;21.20;99.90
41294;DHT22;27037;52.010;4.446;2023-08-08T12:26:03;21.40;99.90
41294;DHT22;27037;52.010;4.446;2023-08-08T12:28:31;21.50;99.90
41294;DHT22;27037;52.010;4.446;2023-08-08T12:30:56;21.70;99.90
41294;DHT22;27037;52.010;4.446;2023-08-08T12:33:22;21.60;99.50
41294;DHT22;27037;52.010;4.446;2023-08-08T12:35:48;21.60;99.40
41294;DHT22;27037;52.010;4.446;2023-08-08T12:38:14;21.60;99.90
41294;DHT22;27037;52.010;4.446;2023-08-08T12:40:40;21.70;99.90
41294;DHT22;27037;52.010;4.446;2023-08-08T12:43:06;21.70;99.90
41294;DHT22;27037;52.010;4.446;2023-08-08T12:45:31;21.70;99.90
41294;DHT22;27037;52.010;4.446;2023-08-08T12:47:57;21.70;99.90
41294;DHT22;27037;52.010;4.446;2023-08-08T12:50:23;21.60;99.70
41294;DHT22;27037;52.010;4.446;2023-08-08T12:52:49;21.60;99.80
41294;DHT22;27037;52.010;4.446;2023-08-08T12:55:15;21.70;99.20
41294;DHT22;27037;52.010;4.446;2023-08-08T12:57:43;21.80;98.90
41294;DHT22;27037;52.010;4.446;2023-08-08T13:00:10;21.70;98.10
41294;DHT22;27037;52.010;4.446;2023-08-08T13:02:36;21.70;97.80
41294;DHT22;27037;52.010;4.446;2023-08-08T13:05:02;21.60;97.40
41294;DHT22;27037;52.010;4.446;2023-08-08T13:07:29;21.60;97.60
41294;DHT22;27037;52.010;4.446;2023-08-08T13:09:54;21.50;98.00
41294;DHT22;27037;52.010;4.446;2023-08-08T13:12:20;21.40;98.50
41294;DHT22;27037;52.010;4.446;2023-08-08T13:14:47;21.50;98.50
41294;DHT22;27037;52.010;4.446;2023-08-08T13:17:12;21.50;98.20
41294;DHT22;27037;52.010;4.446;2023-08-08T13:19:39;21.60;97.80
41294;DHT22;27037;52.010;4.446;2023-08-08T13:22:05;21.70;97.30
41294;DHT22;27037;52.010;4.446;2023-08-08T13:24:31;21.70;96.70
41294;DHT22;27037;52.010;4.446;2023-08-08T13:26:56;21.70;96.40
41294;DHT22;27037;52.010;4.446;2023-08-08T13:29:22;21.70;96.80
41294;DHT22;27037;52.010;4.446;2023-08-08T13:31:48;21.80;97.30
41294;DHT22;27037;52.010;4.446;2023-08-08T13:34:13;22.00;97.50
41294;DHT22;27037;52.010;4.446;2023-08-08T13:36:39;22.10;97.30
41294;DHT22;27037;52.010;4.446;2023-08-08T13:39:05;22.20;97.20
41294;DHT22;27037;52.010;4.446;2023-08-08T13:41:31;22.30;96.50
41294;DHT22;27037;52.010;4.446;2023-08-08T13:43:57;22.20;97.00
41294;DHT22;27037;52.010;4.446;2023-08-08T13:46:22;22.10;97.20
41294;DHT22;27037;52.010;4.446;2023-08-08T13:48:48;22.10;96.90
41294;DHT22;27037;52.010;4.446;2023-08-08T13:51:14;22.10;97.20
41294;DHT22;27037;52.010;4.446;2023-08-08T13:53:40;22.00;97.30
41294;DHT22;27037;52.010;4.446;2023-08-08T13:56:05;21.90;97.40
41294;DHT22;27037;52.010;4.446;2023-08-08T13:58:31;21.80;97.90
41294;DHT22;27037;52.010;4.446;2023-08-08T14:00:57;21.70;98.30
41294;DHT22;27037;52.010;4.446;2023-08-08T14:03:23;21.60;98.90
41294;DHT22;27037;52.010;4.446;2023-08-08T14:05:50;21.40;99.10
41294;DHT22;27037;52.010;4.446;2023-08-08T14:08:17;21.40;99.60
41294;DHT22;27037;52.010;4.446;2023-08-08T14:10:43;21.40;99.50
41294;DHT22;27037;52.010;4.446;2023-08-08T14:13:09;21.50;99.60
41294;DHT22;27037;52.010;4.446;2023-08-08T14:15:36;21.60;99.90
41294;DHT22;27037;52.010;4.446;2023-08-08T14:18:02;21.70;99.90
41294;DHT22;27037;52.010;4.446;2023-08-08T14:20:28;21.70;99.50
41294;DHT22;27037;52.010;4.446;2023-08-08T14:22:54;21.70;98.90
41294;DHT22;27037;52.010;4.446;2023-08-08T14:25:20;21.70;98.00
41294;DHT22;27037;52.010;4.446;2023-08-08T14:27:46;21.60;97.90
41294;DHT22;27037;52.010;4.446;2023-08-08T14:30:11;21.50;97.40
41294;DHT22;27037;52.010;4.446;2023-08-08T14:32:37;21.40;97.20
41294;DHT22;27037;52.010;4.446;2023-08-08T14:35:03;21.40;97.40
41294;DHT22;27037;52.010;4.446;2023-08-08T14:37:30;21.30;97.80
41294;DHT22;27037;52.010;4.446;2023-08-08T14:39:56;21.30;98.50
41294;DHT22;27037;52.010;4.446;2023-08-08T14:42:22;21.20;99.10
41294;DHT22;27037;52.010;4.446;2023-08-08T14:44:48;21.20;99.80
41294;DHT22;27037;52.010;4.446;2023-08-08T14:47:14;21.20;99.90
41294;DHT22;27037;52.010;4.446;2023-08-08T14:49:39;21.20;99.90
41294;DHT22;27037;52.010;4.446;2023-08-08T14:52:05;21.20;99.90
41294;DHT22;27037;52.010;4.446;2023-08-08T14:54:31;21.10;99.90
41294;DHT22;27037;52.010;4.446;2023-08-08T14:56:56;20.90;99.90
41294;DHT22;27037;52.010;4.446;2023-08-08T14:59:22;20.90;99.90
41294;DHT22;27037;52.010;4.446;2023-08-08T15:01:48;20.80;99.90
41294;DHT22;27037;52.010;4.446;2023-08-08T15:04:14;20.80;99.90
41294;DHT22;27037;52.010;4.446;2023-08-08T15:06:40;20.70;99.90
41294;DHT22;27037;52.010;4.446;2023-08-08T15:09:06;20.60;99.90
41294;DHT22;27037;52.010;4.446;2023-08-08T15:11:32;20.40;99.90
41294;DHT22;27037;52.010;4.446;2023-08-08T15:13:57;20.30;99.90
41294;DHT22;27037;52.010;4.446;2023-08-08T15:16:23;20.30;99.90
41294;DHT22;27037;52.010;4.446;2023-08-08T15:18:49;20.20;99.90
41294;DHT22;27037;52.010;4.446;2023-08-08T15:21:14;20.10;99.90
41294;DHT22;27037;52.010;4.446;2023-08-08T15:23:45;20.10;99.90
41294;DHT22;27037;52.010;4.446;2023-08-08T15:26:11;20.10;99.90